sensor_id;sensor_type;location;lat;lon;timestamp;pressure;altitude;pressure_sealevel;temperature;humidity
38022;BME280;23832;43.216;27.946;2023-03-17T00:01:37;100977.22;;;8.41;100.00
38022;BME280;23832;43.216;27.946;2023-03-17T00:03:41;100969.31;;;8.23;100.00
38022;BME280;23832;43.216;27.946;2023-03-17T00:05:43;100979.75;;;8.33;100.00
38022;BME280;23832;43.216;27.946;2023-03-17T00:07:46;100982.41;;;8.51;100.00
38022;BME280;23832;43.216;27.946;2023-03-17T00:09:48;100978.94;;;8.50;100.00
38022;BME280;23832;43.216;27.946;2023-03-17T00:11:50;100977.81;;;8.35;100.00
38022;BME280;23832;43.216;27.946;2023-03-17T00:13:53;100972.09;;;8.22;100.00
38022;BME280;23832;43.216;27.946;2023-03-17T00:15:58;100966.38;;;8.26;100.00
38022;BME280;23832;43.216;27.946;2023-03-17T00:18:00;100980.31;;;8.55;100.00
38022;BME280;23832;43.216;27.946;2023-03-17T00:20:05;100967.94;;;8.91;100.00
38022;BME280;23832;43.216;27.946;2023-03-17T00:22:14;100967.75;;;8.66;100.00
38022;BME280;23832;43.216;27.946;2023-03-17T00:24:18;100967.53;;;8.42;100.00
38022;BME280;23832;43.216;27.946;2023-03-17T00:26:20;100979.66;;;8.25;100.00
38022;BME280;23832;43.216;27.946;2023-03-17T00:28:24;100971.81;;;8.61;100.00
38022;BME280;23832;43.216;27.946;2023-03-17T00:30:26;100923.31;;;8.02;100.00
38022;BME280;23832;43.216;27.946;2023-03-17T00:32:29;100955.97;;;8.35;100.00
38022;BME280;23832;43.216;27.946;2023-03-17T00:34:31;100966.53;;;8.25;100.00
38022;BME280;23832;43.216;27.946;2023-03-17T00:36:35;100976.91;;;8.62;100.00
38022;BME280;23832;43.216;27.946;2023-03-17T00:38:37;100970.31;;;8.40;100.00
38022;BME280;23832;43.216;27.946;2023-03-17T00:40:39;100970.88;;;8.16;100.00
38022;BME280;23832;43.216;27.946;2023-03-17T00:42:41;100972.31;;;8.29;100.00
38022;BME280;23832;43.216;27.946;2023-03-17T00:44:43;100976.31;;;8.50;100.00
38022;BME280;23832;43.216;27.946;2023-03-17T00:46:45;100958.66;;;8.61;100.00
38022;BME280;23832;43.216;27.946;2023-03-17T00:48:47;100973.66;;;8.15;100.00
38022;BME280;23832;43.216;27.946;2023-03-17T00:50:50;100951.94;;;7.95;100.00
38022;BME280;23832;43.216;27.946;2023-03-17T00:52:55;100964.25;;;7.94;100.00
38022;BME280;23832;43.216;27.946;2023-03-17T00:54:57;100964.25;;;7.94;100.00
38022;BME280;23832;43.216;27.946;2023-03-17T00:57:00;100963.38;;;8.04;100.00
38022;BME280;23832;43.216;27.946;2023-03-17T00:59:02;100967.25;;;8.00;100.00
38022;BME280;23832;43.216;27.946;2023-03-17T01:01:04;100980.56;;;8.16;100.00
38022;BME280;23832;43.216;27.946;2023-03-17T01:03:09;100978.16;;;7.77;100.00
38022;BME280;23832;43.216;27.946;2023-03-17T01:05:12;100966.09;;;8.12;100.00
38022;BME280;23832;43.216;27.946;2023-03-17T01:07:15;100969.78;;;8.19;100.00
38022;BME280;23832;43.216;27.946;2023-03-17T01:09:24;100971.75;;;8.07;100.00
38022;BME280;23832;43.216;27.946;2023-03-17T01:11:27;100972.28;;;7.93;100.00
38022;BME280;23832;43.216;27.946;2023-03-17T01:13:30;100965.91;;;8.13;100.00
38022;BME280;23832;43.216;27.946;2023-03-17T01:15:32;100971.78;;;8.25;100.00
38022;BME280;23832;43.216;27.946;2023-03-17T01:17:34;100973.03;;;8.03;100.00
38022;BME280;23832;43.216;27.946;2023-03-17T01:19:37;100965.75;;;7.97;100.00
38022;BME280;23832;43.216;27.946;2023-03-17T01:21:39;100969.56;;;7.85;100.00
38022;BME280;23832;43.216;27.946;2023-03-17T01:23:42;100967.66;;;7.77;100.00
38022;BME280;23832;43.216;27.946;2023-03-17T01:25:45;100972.13;;;7.94;100.00
38022;BME280;23832;43.216;27.946;2023-03-17T01:27:48;100971.16;;;7.95;100.00
38022;BME280;23832;43.216;27.946;2023-03-17T01:29:51;100978.63;;;7.90;100.00
38022;BME280;23832;43.216;27.946;2023-03-17T01:31:53;100963.88;;;8.07;100.00
38022;BME280;23832;43.216;27.946;2023-03-17T01:33:56;100969.19;;;7.97;100.00
38022;BME280;23832;43.216;27.946;2023-03-17T01:35:58;100987.88;;;7.94;100.00
38022;BME280;23832;43.216;27.946;2023-03-17T01:38:00;100972.91;;;7.77;100.00
38022;BME280;23832;43.216;27.946;2023-03-17T01:40:03;100985.84;;;7.88;100.00
38022;BME280;23832;43.216;27.946;2023-03-17T01:42:07;100991.38;;;7.85;100.00
38022;BME280;23832;43.216;27.946;2023-03-17T01:44:14;100981.88;;;7.84;100.00
38022;BME280;23832;43.216;27.946;2023-03-17T01:46:21;100979.69;;;7.97;100.00
38022;BME280;23832;43.216;27.946;2023-03-17T01:48:25;100988.13;;;7.74;100.00
38022;BME280;23832;43.216;27.946;2023-03-17T01:50:28;100983.00;;;7.82;100.00
38022;BME280;23832;43.216;27.946;2023-03-17T01:52:31;100985.84;;;7.88;100.00
38022;BME280;23832;43.216;27.946;2023-03-17T01:54:39;100979.44;;;8.01;100.00
38022;BME280;23832;43.216;27.946;2023-03-17T01:56:43;100972.03;;;7.86;100.00
38022;BME280;23832;43.216;27.946;2023-03-17T01:58:50;100984.53;;;7.75;100.00
38022;BME280;23832;43.216;27.946;2023-03-17T02:00:53;100988.38;;;7.80;100.00
38022;BME280;23832;43.216;27.946;2023-03-17T02:02:55;100983.00;;;8.00;100.00
38022;BME280;23832;43.216;27.946;2023-03-17T02:04:58;100990.41;;;7.59;100.00
38022;BME280;23832;43.216;27.946;2023-03-17T02:07:02;100989.00;;;7.64;100.00
38022;BME280;23832;43.216;27.946;2023-03-17T02:09:05;100994.31;;;7.82;100.00
38022;BME280;23832;43.216;27.946;2023-03-17T02:11:08;101005.38;;;8.04;100.00
38022;BME280;23832;43.216;27.946;2023-03-17T02:13:12;100992.28;;;8.21;100.00
38022;BME280;23832;43.216;27.946;2023-03-17T02:15:15;100988.66;;;8.22;100.00
38022;BME280;23832;43.216;27.946;2023-03-17T02:17:18;100988.88;;;8.39;100.00
38022;BME280;23832;43.216;27.946;2023-03-17T02:19:20;100995.47;;;8.43;100.00
38022;BME280;23832;43.216;27.946;2023-03-17T02:21:41;100992.72;;;7.89;100.00
38022;BME280;23832;43.216;27.946;2023-03-17T02:23:44;100998.22;;;7.96;100.00
38022;BME280;23832;43.216;27.946;2023-03-17T02:25:48;100996.06;;;7.91;100.00
38022;BME280;23832;43.216;27.946;2023-03-17T02:27:53;101009.34;;;7.80;100.00
38022;BME280;23832;43.216;27.946;2023-03-17T02:29:58;100994.59;;;7.79;100.00
38022;BME280;23832;43.216;27.946;2023-03-17T02:32:01;100996.13;;;8.00;100.00
38022;BME280;23832;43.216;27.946;2023-03-17T02:34:03;101007.13;;;7.85;100.00
38022;BME280;23832;43.216;27.946;2023-03-17T02:36:06;101006.50;;;8.01;100.00
38022;BME280;23832;43.216;27.946;2023-03-17T02:38:10;101021.91;;;8.14;100.00
38022;BME280;23832;43.216;27.946;2023-03-17T02:40:13;101017.25;;;8.25;100.00
38022;BME280;23832;43.216;27.946;2023-03-17T02:42:16;101007.03;;;8.50;100.00
38022;BME280;23832;43.216;27.946;2023-03-17T02:44:17;101010.56;;;8.59;100.00
38022;BME280;23832;43.216;27.946;2023-03-17T02:46:20;101002.31;;;8.26;100.00
38022;BME280;23832;43.216;27.946;2023-03-17T02:48:22;101011.97;;;8.08;100.00
38022;BME280;23832;43.216;27.946;2023-03-17T02:50:25;101005.50;;;8.30;100.00
38022;BME280;23832;43.216;27.946;2023-03-17T02:52:29;101003.03;;;8.28;100.00
38022;BME280;23832;43.216;27.946;2023-03-17T02:54:33;101005.88;;;8.52;100.00
38022;BME280;23832;43.216;27.946;2023-03-17T02:56:34;101030.19;;;8.19;100.00
38022;BME280;23832;43.216;27.946;2023-03-17T02:58:37;101013.56;;;8.01;100.00
38022;BME280;23832;43.216;27.946;2023-03-17T03:00:38;101030.84;;;8.48;100.00
38022;BME280;23832;43.216;27.946;2023-03-17T03:02:41;101028.81;;;8.60;100.00
38022;BME280;23832;43.216;27.946;2023-03-17T03:04:43;101034.59;;;8.46;100.00
38022;BME280;23832;43.216;27.946;2023-03-17T03:06:46;101046.31;;;8.24;100.00
38022;BME280;23832;43.216;27.946;2023-03-17T03:08:48;101051.75;;;8.40;100.00
38022;BME280;23832;43.216;27.946;2023-03-17T03:10:51;101052.75;;;8.39;100.00
38022;BME280;23832;43.216;27.946;2023-03-17T03:12:54;101064.03;;;8.67;100.00
38022;BME280;23832;43.216;27.946;2023-03-17T03:14:56;101060.56;;;8.67;100.00
38022;BME280;23832;43.216;27.946;2023-03-17T03:16:58;101051.19;;;8.46;100.00
38022;BME280;23832;43.216;27.946;2023-03-17T03:19:00;101079.38;;;8.44;100.00
38022;BME280;23832;43.216;27.946;2023-03-17T03:21:02;101087.22;;;8.54;100.00
38022;BME280;23832;43.216;27.946;2023-03-17T03:23:04;101081.13;;;8.89;100.00
38022;BME280;23832;43.216;27.946;2023-03-17T03:25:07;101074.69;;;9.01;100.00
38022;BME280;23832;43.216;27.946;2023-03-17T03:27:10;101087.63;;;9.38;100.00
38022;BME280;23832;43.216;27.946;2023-03-17T03:29:12;101078.91;;;8.94;100.00
38022;BME280;23832;43.216;27.946;2023-03-17T03:31:15;101059.06;;;8.82;100.00
38022;BME280;23832;43.216;27.946;2023-03-17T03:33:17;101085.06;;;9.03;100.00
38022;BME280;23832;43.216;27.946;2023-03-17T03:35:19;101064.84;;;8.50;100.00
38022;BME280;23832;43.216;27.946;2023-03-17T03:37:21;101061.78;;;8.90;100.00
38022;BME280;23832;43.216;27.946;2023-03-17T03:39:23;101061.53;;;9.01;100.00
38022;BME280;23832;43.216;27.946;2023-03-17T03:41:24;101060.72;;;8.65;100.00
38022;BME280;23832;43.216;27.946;2023-03-17T03:43:28;101068.50;;;8.39;100.00
38022;BME280;23832;43.216;27.946;2023-03-17T03:45:30;101057.47;;;8.53;100.00
38022;BME280;23832;43.216;27.946;2023-03-17T03:47:35;101073.19;;;8.45;100.00
38022;BME280;23832;43.216;27.946;2023-03-17T03:49:37;101062.13;;;8.14;100.00
38022;BME280;23832;43.216;27.946;2023-03-17T03:51:39;101063.63;;;8.17;100.00
38022;BME280;23832;43.216;27.946;2023-03-17T03:53:42;101072.94;;;8.39;100.00
38022;BME280;23832;43.216;27.946;2023-03-17T03:55:44;101074.00;;;8.46;100.00
38022;BME280;23832;43.216;27.946;2023-03-17T03:57:46;101066.06;;;8.56;100.00
38022;BME280;23832;43.216;27.946;2023-03-17T03:59:49;101072.59;;;8.87;100.00
38022;BME280;23832;43.216;27.946;2023-03-17T04:01:51;101075.28;;;8.60;100.00
38022;BME280;23832;43.216;27.946;2023-03-17T04:03:53;101086.06;;;8.39;100.00
38022;BME280;23832;43.216;27.946;2023-03-17T04:05:56;101080.38;;;8.43;100.00
38022;BME280;23832;43.216;27.946;2023-03-17T04:07:57;101092.59;;;8.25;100.00
38022;BME280;23832;43.216;27.946;2023-03-17T04:10:00;101096.22;;;8.51;100.00
38022;BME280;23832;43.216;27.946;2023-03-17T04:12:02;101098.16;;;8.22;100.00
38022;BME280;23832;43.216;27.946;2023-03-17T04:14:04;101099.00;;;8.22;100.00
38022;BME280;23832;43.216;27.946;2023-03-17T04:16:08;101097.59;;;8.28;100.00
38022;BME280;23832;43.216;27.946;2023-03-17T04:18:10;101104.66;;;8.55;100.00
38022;BME280;23832;43.216;27.946;2023-03-17T04:20:13;101105.16;;;8.59;100.00
38022;BME280;23832;43.216;27.946;2023-03-17T04:22:15;101105.75;;;8.52;100.00
38022;BME280;23832;43.216;27.946;2023-03-17T04:24:17;101113.84;;;8.41;100.00
38022;BME280;23832;43.216;27.946;2023-03-17T04:26:19;101101.47;;;8.51;100.00
38022;BME280;23832;43.216;27.946;2023-03-17T04:28:22;101103.94;;;8.25;100.00
38022;BME280;23832;43.216;27.946;2023-03-17T04:30:24;101107.94;;;8.30;100.00
38022;BME280;23832;43.216;27.946;2023-03-17T04:32:28;101112.66;;;8.26;100.00
38022;BME280;23832;43.216;27.946;2023-03-17T04:34:30;101113.50;;;8.54;100.00
38022;BME280;23832;43.216;27.946;2023-03-17T04:36:32;101113.22;;;8.75;100.00
38022;BME280;23832;43.216;27.946;2023-03-17T04:38:34;101112.81;;;8.52;100.00
38022;BME280;23832;43.216;27.946;2023-03-17T04:40:38;101116.88;;;8.46;100.00
38022;BME280;23832;43.216;27.946;2023-03-17T04:42:40;101116.56;;;8.22;100.00
38022;BME280;23832;43.216;27.946;2023-03-17T04:44:43;101123.25;;;8.07;100.00
38022;BME280;23832;43.216;27.946;2023-03-17T04:46:45;101120.38;;;8.00;100.00
38022;BME280;23832;43.216;27.946;2023-03-17T04:48:49;101125.66;;;7.90;100.00
38022;BME280;23832;43.216;27.946;2023-03-17T04:50:51;101125.31;;;8.13;100.00
38022;BME280;23832;43.216;27.946;2023-03-17T04:52:53;101129.41;;;7.88;100.00
38022;BME280;23832;43.216;27.946;2023-03-17T04:54:55;101124.53;;;8.30;100.00
38022;BME280;23832;43.216;27.946;2023-03-17T04:56:57;101135.41;;;8.45;100.00
38022;BME280;23832;43.216;27.946;2023-03-17T04:58:59;101131.59;;;8.30;100.00
38022;BME280;23832;43.216;27.946;2023-03-17T05:01:01;101149.84;;;7.94;100.00
38022;BME280;23832;43.216;27.946;2023-03-17T05:03:04;101136.34;;;8.16;100.00
38022;BME280;23832;43.216;27.946;2023-03-17T05:05:09;101143.38;;;8.16;100.00
38022;BME280;23832;43.216;27.946;2023-03-17T05:07:12;101147.34;;;7.92;100.00
38022;BME280;23832;43.216;27.946;2023-03-17T05:09:14;101142.06;;;8.02;100.00
38022;BME280;23832;43.216;27.946;2023-03-17T05:11:15;101144.66;;;8.12;100.00
38022;BME280;23832;43.216;27.946;2023-03-17T05:13:19;101149.81;;;8.04;100.00
38022;BME280;23832;43.216;27.946;2023-03-17T05:15:21;101156.28;;;8.00;100.00
38022;BME280;23832;43.216;27.946;2023-03-17T05:17:23;101144.66;;;8.12;100.00
38022;BME280;23832;43.216;27.946;2023-03-17T05:19:25;101150.25;;;8.26;100.00
38022;BME280;23832;43.216;27.946;2023-03-17T05:21:30;101159.63;;;8.02;100.00
38022;BME280;23832;43.216;27.946;2023-03-17T05:23:32;101164.09;;;7.91;100.00
38022;BME280;23832;43.216;27.946;2023-03-17T05:25:34;101160.44;;;8.02;100.00
38022;BME280;23832;43.216;27.946;2023-03-17T05:27:36;101176.44;;;8.18;100.00
38022;BME280;23832;43.216;27.946;2023-03-17T05:29:39;101183.56;;;8.26;100.00
38022;BME280;23832;43.216;27.946;2023-03-17T05:31:41;101187.63;;;8.58;100.00
38022;BME280;23832;43.216;27.946;2023-03-17T05:33:43;101191.44;;;8.91;94.93
38022;BME280;23832;43.216;27.946;2023-03-17T05:35:45;101194.00;;;9.00;91.80
38022;BME280;23832;43.216;27.946;2023-03-17T05:37:48;101197.00;;;9.05;89.62
38022;BME280;23832;43.216;27.946;2023-03-17T05:39:51;101210.97;;;8.88;91.48
38022;BME280;23832;43.216;27.946;2023-03-17T05:41:53;101198.53;;;8.63;91.88
38022;BME280;23832;43.216;27.946;2023-03-17T05:43:56;101205.34;;;9.01;89.46
38022;BME280;23832;43.216;27.946;2023-03-17T05:45:58;101200.88;;;9.29;87.50
38022;BME280;23832;43.216;27.946;2023-03-17T05:48:00;101211.06;;;9.67;84.79
38022;BME280;23832;43.216;27.946;2023-03-17T05:50:04;101225.38;;;9.29;83.92
38022;BME280;23832;43.216;27.946;2023-03-17T05:52:07;101216.88;;;9.18;85.35
38022;BME280;23832;43.216;27.946;2023-03-17T05:54:10;101230.78;;;9.46;83.80
38022;BME280;23832;43.216;27.946;2023-03-17T05:56:13;101235.00;;;9.56;82.61
38022;BME280;23832;43.216;27.946;2023-03-17T05:58:16;101244.56;;;10.01;77.95
38022;BME280;23832;43.216;27.946;2023-03-17T06:00:19;101238.47;;;10.01;78.44
38022;BME280;23832;43.216;27.946;2023-03-17T06:02:22;101252.41;;;10.19;76.52
38022;BME280;23832;43.216;27.946;2023-03-17T06:04:24;101233.69;;;9.60;77.92
38022;BME280;23832;43.216;27.946;2023-03-17T06:06:27;101255.88;;;10.19;77.48
38022;BME280;23832;43.216;27.946;2023-03-17T06:08:29;101246.16;;;10.46;73.72
38022;BME280;23832;43.216;27.946;2023-03-17T06:10:33;101257.97;;;10.68;72.18
38022;BME280;23832;43.216;27.946;2023-03-17T06:12:36;101263.47;;;10.83;70.18
38022;BME280;23832;43.216;27.946;2023-03-17T06:14:38;101250.19;;;10.58;70.08
38022;BME280;23832;43.216;27.946;2023-03-17T06:16:40;101262.84;;;10.03;74.15
38022;BME280;23832;43.216;27.946;2023-03-17T06:18:43;101262.28;;;10.17;73.76
38022;BME280;23832;43.216;27.946;2023-03-17T06:20:45;101279.72;;;10.36;71.00
38022;BME280;23832;43.216;27.946;2023-03-17T06:22:47;101281.44;;;10.45;71.49
38022;BME280;23832;43.216;27.946;2023-03-17T06:24:49;101296.91;;;10.48;71.66
38022;BME280;23832;43.216;27.946;2023-03-17T06:26:54;101311.41;;;10.44;72.24
38022;BME280;23832;43.216;27.946;2023-03-17T06:28:57;101324.66;;;10.60;70.16
38022;BME280;23832;43.216;27.946;2023-03-17T06:30:59;101314.38;;;10.49;69.66
38022;BME280;23832;43.216;27.946;2023-03-17T06:33:01;101312.84;;;10.20;70.62
38022;BME280;23832;43.216;27.946;2023-03-17T06:35:04;101325.13;;;10.30;70.96
38022;BME280;23832;43.216;27.946;2023-03-17T06:37:07;101322.84;;;10.52;70.72
38022;BME280;23832;43.216;27.946;2023-03-17T06:39:09;101315.06;;;10.25;70.63
38022;BME280;23832;43.216;27.946;2023-03-17T06:41:11;101323.94;;;10.50;69.82
38022;BME280;23832;43.216;27.946;2023-03-17T06:43:15;101324.22;;;10.65;68.13
38022;BME280;23832;43.216;27.946;2023-03-17T06:45:18;101330.34;;;10.73;67.82
38022;BME280;23832;43.216;27.946;2023-03-17T06:47:21;101334.97;;;10.71;68.20
38022;BME280;23832;43.216;27.946;2023-03-17T06:49:23;101342.47;;;10.92;67.70
38022;BME280;23832;43.216;27.946;2023-03-17T06:51:26;101332.88;;;10.83;67.39
38022;BME280;23832;43.216;27.946;2023-03-17T06:53:28;101335.72;;;10.90;67.29
38022;BME280;23832;43.216;27.946;2023-03-17T06:55:30;101341.00;;;10.90;65.90
38022;BME280;23832;43.216;27.946;2023-03-17T06:57:33;101332.69;;;11.19;65.43
38022;BME280;23832;43.216;27.946;2023-03-17T06:59:36;101335.22;;;11.36;64.38
38022;BME280;23832;43.216;27.946;2023-03-17T07:01:39;101328.63;;;11.32;63.63
38022;BME280;23832;43.216;27.946;2023-03-17T07:03:41;101336.97;;;11.12;65.13
38022;BME280;23832;43.216;27.946;2023-03-17T07:05:44;101326.59;;;11.18;64.11
38022;BME280;23832;43.216;27.946;2023-03-17T07:07:47;101337.56;;;11.48;62.68
38022;BME280;23832;43.216;27.946;2023-03-17T07:09:49;101329.03;;;11.12;63.23
38022;BME280;23832;43.216;27.946;2023-03-17T07:11:51;101327.22;;;11.12;62.88
38022;BME280;23832;43.216;27.946;2023-03-17T07:13:53;101334.88;;;11.23;62.38
38022;BME280;23832;43.216;27.946;2023-03-17T07:15:58;101329.91;;;11.20;62.31
38022;BME280;23832;43.216;27.946;2023-03-17T07:18:00;101336.50;;;11.16;61.90
38022;BME280;23832;43.216;27.946;2023-03-17T07:20:04;101337.91;;;11.45;61.29
38022;BME280;23832;43.216;27.946;2023-03-17T07:22:08;101338.94;;;11.76;59.26
38022;BME280;23832;43.216;27.946;2023-03-17T07:24:11;101326.69;;;11.59;59.44
38022;BME280;23832;43.216;27.946;2023-03-17T07:26:13;101326.03;;;11.65;59.17
38022;BME280;23832;43.216;27.946;2023-03-17T07:28:15;101331.56;;;11.29;59.28
38022;BME280;23832;43.216;27.946;2023-03-17T07:30:18;101336.63;;;11.73;57.58
38022;BME280;23832;43.216;27.946;2023-03-17T07:32:22;101331.16;;;11.66;57.48
38022;BME280;23832;43.216;27.946;2023-03-17T07:34:24;101336.34;;;11.84;57.17
38022;BME280;23832;43.216;27.946;2023-03-17T07:36:26;101338.34;;;12.07;59.37
38022;BME280;23832;43.216;27.946;2023-03-17T07:38:28;101344.28;;;12.01;59.97
38022;BME280;23832;43.216;27.946;2023-03-17T07:40:31;101340.63;;;12.18;57.14
38022;BME280;23832;43.216;27.946;2023-03-17T07:42:33;101326.25;;;12.20;56.12
38022;BME280;23832;43.216;27.946;2023-03-17T07:44:36;101334.53;;;12.09;56.34
38022;BME280;23832;43.216;27.946;2023-03-17T07:46:40;101325.06;;;11.66;57.99
38022;BME280;23832;43.216;27.946;2023-03-17T07:48:44;101333.97;;;11.65;58.65
38022;BME280;23832;43.216;27.946;2023-03-17T07:50:46;101338.50;;;12.13;57.45
38022;BME280;23832;43.216;27.946;2023-03-17T07:52:48;101341.81;;;12.32;60.47
38022;BME280;23832;43.216;27.946;2023-03-17T07:54:51;101287.13;;;12.00;66.48
38022;BME280;23832;43.216;27.946;2023-03-17T07:56:53;101332.59;;;12.75;61.16
38022;BME280;23832;43.216;27.946;2023-03-17T07:58:55;101333.53;;;12.98;62.35
38022;BME280;23832;43.216;27.946;2023-03-17T08:00:59;101330.59;;;12.85;59.38
38022;BME280;23832;43.216;27.946;2023-03-17T08:03:01;101331.53;;;13.00;57.85
38022;BME280;23832;43.216;27.946;2023-03-17T08:05:08;101343.78;;;12.93;52.91
38022;BME280;23832;43.216;27.946;2023-03-17T08:07:10;101339.22;;;13.18;52.57
38022;BME280;23832;43.216;27.946;2023-03-17T08:09:12;101333.97;;;12.55;53.78
38022;BME280;23832;43.216;27.946;2023-03-17T08:11:14;101344.91;;;12.60;54.21
38022;BME280;23832;43.216;27.946;2023-03-17T08:13:17;101348.38;;;13.07;52.70
38022;BME280;23832;43.216;27.946;2023-03-17T08:15:19;101360.94;;;12.58;53.61
38022;BME280;23832;43.216;27.946;2023-03-17T08:17:22;101350.03;;;12.45;53.12
38022;BME280;23832;43.216;27.946;2023-03-17T08:19:27;101346.56;;;12.36;53.64
38022;BME280;23832;43.216;27.946;2023-03-17T08:21:31;101362.41;;;12.69;53.19
38022;BME280;23832;43.216;27.946;2023-03-17T08:23:33;101363.44;;;12.11;54.45
38022;BME280;23832;43.216;27.946;2023-03-17T08:25:36;101362.44;;;12.28;54.04
38022;BME280;23832;43.216;27.946;2023-03-17T08:27:38;101356.41;;;12.75;53.35
38022;BME280;23832;43.216;27.946;2023-03-17T08:29:41;101364.84;;;12.78;53.10
38022;BME280;23832;43.216;27.946;2023-03-17T08:31:44;101364.38;;;12.67;52.52
38022;BME280;23832;43.216;27.946;2023-03-17T08:33:47;101352.75;;;12.84;52.51
38022;BME280;23832;43.216;27.946;2023-03-17T08:35:50;101368.19;;;12.48;52.99
38022;BME280;23832;43.216;27.946;2023-03-17T08:37:54;101375.31;;;12.56;52.91
38022;BME280;23832;43.216;27.946;2023-03-17T08:39:57;101358.31;;;13.05;51.73
38022;BME280;23832;43.216;27.946;2023-03-17T08:42:00;101364.06;;;12.62;52.45
38022;BME280;23832;43.216;27.946;2023-03-17T08:44:02;101358.47;;;12.00;55.92
38022;BME280;23832;43.216;27.946;2023-03-17T08:46:06;101364.94;;;12.13;57.01
38022;BME280;23832;43.216;27.946;2023-03-17T08:48:09;101365.75;;;12.14;55.97
38022;BME280;23832;43.216;27.946;2023-03-17T08:50:15;101355.50;;;12.35;53.67
38022;BME280;23832;43.216;27.946;2023-03-17T08:52:18;101350.84;;;12.45;53.48
38022;BME280;23832;43.216;27.946;2023-03-17T08:54:23;101359.25;;;12.65;52.83
38022;BME280;23832;43.216;27.946;2023-03-17T08:56:25;101361.63;;;13.07;51.84
38022;BME280;23832;43.216;27.946;2023-03-17T08:58:28;101344.84;;;13.31;51.13
38022;BME280;23832;43.216;27.946;2023-03-17T09:00:30;101346.19;;;13.19;50.80
38022;BME280;23832;43.216;27.946;2023-03-17T09:02:32;101358.34;;;12.97;52.12
38022;BME280;23832;43.216;27.946;2023-03-17T09:04:35;101346.66;;;13.31;51.07
38022;BME280;23832;43.216;27.946;2023-03-17T09:06:38;101358.63;;;13.11;51.84
38022;BME280;23832;43.216;27.946;2023-03-17T09:08:42;101372.66;;;12.64;51.68
38022;BME280;23832;43.216;27.946;2023-03-17T09:10:48;101354.97;;;12.40;51.97
38022;BME280;23832;43.216;27.946;2023-03-17T09:12:51;101359.75;;;12.77;51.43
38022;BME280;23832;43.216;27.946;2023-03-17T09:14:54;101359.97;;;13.06;50.79
38022;BME280;23832;43.216;27.946;2023-03-17T09:16:57;101349.16;;;13.55;49.78
38022;BME280;23832;43.216;27.946;2023-03-17T09:19:00;101343.44;;;13.44;49.74
38022;BME280;23832;43.216;27.946;2023-03-17T09:21:03;101342.16;;;14.08;49.05
38022;BME280;23832;43.216;27.946;2023-03-17T09:23:07;101336.84;;;14.08;49.18
38022;BME280;23832;43.216;27.946;2023-03-17T09:25:10;101357.22;;;14.31;48.39
38022;BME280;23832;43.216;27.946;2023-03-17T09:27:13;101363.72;;;14.43;47.77
38022;BME280;23832;43.216;27.946;2023-03-17T09:29:15;101355.72;;;14.28;47.73
38022;BME280;23832;43.216;27.946;2023-03-17T09:31:17;101344.84;;;14.23;48.50
38022;BME280;23832;43.216;27.946;2023-03-17T09:33:22;101361.34;;;14.33;47.36
38022;BME280;23832;43.216;27.946;2023-03-17T09:35:28;101348.66;;;14.06;48.45
38022;BME280;23832;43.216;27.946;2023-03-17T09:37:33;101338.72;;;14.75;47.50
38022;BME280;23832;43.216;27.946;2023-03-17T09:39:36;101341.06;;;14.17;48.49
38022;BME280;23832;43.216;27.946;2023-03-17T09:41:53;101347.06;;;14.57;46.83
38022;BME280;23832;43.216;27.946;2023-03-17T09:44:06;101348.94;;;15.37;46.55
38022;BME280;23832;43.216;27.946;2023-03-17T09:46:25;101330.50;;;15.36;45.54
38022;BME280;23832;43.216;27.946;2023-03-17T09:48:47;101331.56;;;14.61;45.78
38022;BME280;23832;43.216;27.946;2023-03-17T09:50:54;101339.44;;;14.98;46.09
38022;BME280;23832;43.216;27.946;2023-03-17T09:53:00;101331.06;;;15.67;44.97
38022;BME280;23832;43.216;27.946;2023-03-17T09:55:06;101331.97;;;15.96;43.60
38022;BME280;23832;43.216;27.946;2023-03-17T09:57:15;101305.59;;;15.73;45.39
38022;BME280;23832;43.216;27.946;2023-03-17T09:59:28;101315.56;;;15.92;43.44
38022;BME280;23832;43.216;27.946;2023-03-17T10:01:31;101308.28;;;16.01;44.12
38022;BME280;23832;43.216;27.946;2023-03-17T10:03:33;101321.53;;;16.22;44.42
38022;BME280;23832;43.216;27.946;2023-03-17T10:05:36;101318.72;;;15.81;46.29
38022;BME280;23832;43.216;27.946;2023-03-17T10:07:43;101301.31;;;15.57;45.20
38022;BME280;23832;43.216;27.946;2023-03-17T10:09:53;101314.47;;;16.08;44.40
38022;BME280;23832;43.216;27.946;2023-03-17T10:12:02;101329.63;;;15.50;45.78
38022;BME280;23832;43.216;27.946;2023-03-17T10:14:21;101307.97;;;15.68;45.57
38022;BME280;23832;43.216;27.946;2023-03-17T10:16:34;101319.19;;;15.12;45.23
38022;BME280;23832;43.216;27.946;2023-03-17T10:18:44;101314.41;;;15.22;45.87
38022;BME280;23832;43.216;27.946;2023-03-17T10:20:51;101325.34;;;14.98;46.58
38022;BME280;23832;43.216;27.946;2023-03-17T10:22:56;101332.81;;;15.60;45.30
38022;BME280;23832;43.216;27.946;2023-03-17T10:25:03;101326.56;;;15.31;46.03
38022;BME280;23832;43.216;27.946;2023-03-17T10:27:08;101324.88;;;15.09;46.45
38022;BME280;23832;43.216;27.946;2023-03-17T10:29:14;101315.44;;;15.43;46.23
38022;BME280;23832;43.216;27.946;2023-03-17T10:31:19;101330.84;;;15.47;46.07
38022;BME280;23832;43.216;27.946;2023-03-17T10:33:24;101330.41;;;14.93;46.34
38022;BME280;23832;43.216;27.946;2023-03-17T10:35:29;101318.44;;;15.18;45.60
38022;BME280;23832;43.216;27.946;2023-03-17T10:37:36;101330.06;;;15.32;45.88